Time;durP1;ratioP1;P1;durP2;ratioP2;P2;SDS_P1;SDS_P2;PMS_P1;PMS_P2;Temp;Humidity;BMP_temperature;BMP_pressure;BME280_temperature;BME280_humidity;BME280_pressure;Samples;Min_cycle;Max_cycle;Signal;HPM_P1;HPM_P2
2021/05/17 00:01:15;;;;;;;3.60;3.30;;;;;;;13.28;89.83;94286.56;5114033;28;20450;-80
2021/05/17 00:03:47;;;;;;;3.03;2.83;;;;;;;13.21;89.78;94285.56;5113877;28;20483;-80
2021/05/17 00:06:15;;;;;;;3.93;3.50;;;;;;;13.18;89.98;94283.25;5113992;28;20444;-80
2021/05/17 00:08:42;;;;;;;3.00;2.80;;;;;;;13.10;89.62;94284.03;5113869;28;20442;-80
2021/05/17 00:11:09;;;;;;;3.33;3.13;;;;;;;13.05;89.88;94281.06;5062071;28;20452;-80
2021/05/17 00:13:35;;;;;;;3.40;3.20;;;;;;;13.02;90.02;94291.91;5113769;28;20512;-80
2021/05/17 00:16:03;;;;;;;3.30;3.10;;;;;;;12.99;89.90;94293.03;5113453;28;20443;-80
2021/05/17 00:18:30;;;;;;;3.40;2.93;;;;;;;12.87;90.56;94288.22;5113747;28;20474;-80
2021/05/17 00:20:56;;;;;;;6.20;3.73;;;;;;;12.90;90.60;94288.72;5113797;28;20428;-80
2021/05/17 00:23:23;;;;;;;3.27;3.07;;;;;;;12.91;90.97;94293.00;5113700;28;20435;-80
2021/05/17 00:25:50;;;;;;;3.37;3.10;;;;;;;12.87;90.23;94291.69;5113434;28;20455;-81
2021/05/17 00:28:17;;;;;;;3.83;2.93;;;;;;;12.86;90.26;94308.47;5117486;28;20454;-80
2021/05/17 00:30:44;;;;;;;3.27;3.07;;;;;;;12.80;90.25;94300.38;5118030;28;20815;-80
2021/05/17 00:33:11;;;;;;;3.47;3.20;;;;;;;12.73;90.44;94294.09;5117559;28;20435;-80
2021/05/17 00:35:38;;;;;;;3.17;2.97;;;;;;;12.64;90.78;94287.94;5117469;28;20450;-80
2021/05/17 00:38:05;;;;;;;3.30;3.10;;;;;;;12.64;91.29;94290.59;5099032;28;20500;-80
2021/05/17 00:40:32;;;;;;;4.00;3.30;;;;;;;12.66;91.42;94280.72;5118248;28;20432;-81
2021/05/17 00:42:58;;;;;;;3.53;3.23;;;;;;;12.66;91.36;94288.63;5117382;28;20586;-80
2021/05/17 00:45:26;;;;;;;3.43;3.13;;;;;;;12.67;90.90;94287.63;5117425;28;20756;-80
2021/05/17 00:47:54;;;;;;;3.30;3.00;;;;;;;12.68;91.64;94284.84;5117294;28;20533;-80
2021/05/17 00:50:23;;;;;;;2.80;2.60;;;;;;;12.72;91.68;94274.81;5117213;28;20450;-80
2021/05/17 00:52:50;;;;;;;3.03;2.83;;;;;;;12.69;91.15;94268.06;5117513;28;20442;-80
2021/05/17 00:55:17;;;;;;;2.87;2.67;;;;;;;12.75;90.78;94277.16;5117482;28;20439;-80
2021/05/17 00:57:44;;;;;;;2.90;2.70;;;;;;;12.77;90.97;94279.63;5081946;28;20467;-80
2021/05/17 01:00:14;;;;;;;5.93;3.10;;;;;;;12.66;90.42;94278.09;5117174;28;20933;-80
2021/05/17 01:02:40;;;;;;;4.60;2.80;;;;;;;12.70;90.71;94268.88;5098888;28;20778;-80
2021/05/17 01:05:08;;;;;;;2.80;2.60;;;;;;;12.74;90.68;94283.41;5117469;28;20470;-80
2021/05/17 01:07:37;;;;;;;3.50;3.20;;;;;;;12.74;90.59;94286.03;5048036;28;20463;-80
2021/05/17 01:10:05;;;;;;;3.13;2.83;;;;;;;12.68;90.22;94286.66;5116999;28;20571;-80
2021/05/17 01:12:33;;;;;;;2.97;2.77;;;;;;;12.65;90.83;94294.88;5117129;28;20428;-80
2021/05/17 01:15:00;;;;;;;2.93;2.70;;;;;;;12.63;90.91;94286.31;5117683;28;20435;-80
2021/05/17 01:17:27;;;;;;;3.57;3.37;;;;;;;12.53;91.46;94286.44;5116938;28;20489;-81
2021/05/17 01:20:05;;;;;;;2.83;2.63;;;;;;;12.52;90.99;94289.22;5117232;28;20434;-80
2021/05/17 01:22:39;;;;;;;6.10;2.93;;;;;;;12.46;91.04;94290.69;5116644;28;20430;-80
2021/05/17 01:25:08;;;;;;;3.13;2.80;;;;;;;12.43;91.77;94288.34;5116656;28;20433;-80
2021/05/17 01:27:35;;;;;;;8.50;3.00;;;;;;;12.41;91.40;94292.94;5116558;28;20439;-80
2021/05/17 01:30:03;;;;;;;3.37;2.83;;;;;;;12.43;91.90;94298.03;5080982;28;20522;-80
2021/05/17 01:32:31;;;;;;;2.80;2.60;;;;;;;12.45;91.71;94301.38;5116337;28;20443;-80
2021/05/17 01:34:59;;;;;;;2.93;2.47;;;;;;;12.47;91.99;94292.31;5116827;28;20430;-80
2021/05/17 01:37:28;;;;;;;3.83;3.00;;;;;;;12.48;90.99;94287.88;5117028;28;20528;-80
2021/05/17 01:39:56;;;;;;;4.90;3.17;;;;;;;12.50;91.89;94291.19;5116226;28;20427;-80
2021/05/17 01:42:25;;;;;;;6.70;2.80;;;;;;;12.51;91.04;94292.84;5116556;28;20447;-80
2021/05/17 01:44:54;;;;;;;3.00;2.70;;;;;;;12.48;91.22;94285.25;5116198;28;20946;-80
2021/05/17 01:47:23;;;;;;;3.50;3.30;;;;;;;12.38;90.53;94296.69;5116516;28;20431;-80
2021/05/17 01:49:52;;;;;;;9.90;7.00;;;;;;;12.29;90.81;94294.19;5116407;28;20447;-80
2021/05/17 01:52:19;;;;;;;3.47;3.27;;;;;;;12.13;90.66;94287.00;5116338;28;20443;-80
2021/05/17 01:54:49;;;;;;;4.77;4.07;;;;;;;11.94;91.81;94287.22;5116198;28;20435;-80
2021/05/17 01:57:16;;;;;;;3.97;3.67;;;;;;;11.86;92.92;94287.16;5115791;28;20470;-80
2021/05/17 01:59:46;;;;;;;4.50;4.10;;;;;;;11.87;93.21;94286.19;5115857;28;20435;-80
2021/05/17 02:02:12;;;;;;;4.57;4.20;;;;;;;11.62;93.65;94280.69;5080995;28;20445;-80
2021/05/17 02:04:39;;;;;;;7.93;5.33;;;;;;;11.65;94.14;94285.63;5115730;28;20487;-80
2021/05/17 02:07:05;;;;;;;8.93;4.80;;;;;;;11.61;94.38;94273.78;5081095;28;20439;-80
2021/05/17 02:09:33;;;;;;;11.93;5.77;;;;;;;11.63;94.37;94271.00;5116041;28;20500;-80
2021/05/17 02:12:03;;;;;;;6.37;5.10;;;;;;;11.65;95.33;94269.88;5115806;28;20438;-80
2021/05/17 02:14:31;;;;;;;12.40;6.17;;;;;;;11.66;95.34;94254.91;5115823;28;20484;-80
2021/05/17 02:16:59;;;;;;;6.20;5.40;;;;;;;11.69;94.70;94258.06;5115778;28;20486;-80
2021/05/17 02:19:25;;;;;;;8.43;5.97;;;;;;;11.73;95.19;94251.53;5115450;28;20438;-80
2021/05/17 02:21:52;;;;;;;6.17;5.57;;;;;;;11.78;95.37;94249.28;5080187;28;20447;-80
2021/05/17 02:24:18;;;;;;;10.93;5.40;;;;;;;11.76;95.20;94261.72;5115730;28;20435;-80
2021/05/17 02:26:45;;;;;;;6.20;5.70;;;;;;;11.74;95.01;94250.53;5115483;28;20464;-80
2021/05/17 02:29:12;;;;;;;5.03;4.73;;;;;;;11.77;94.63;94252.88;5115292;28;20438;-80
2021/05/17 02:31:39;;;;;;;4.37;4.07;;;;;;;11.83;94.37;94266.41;5115603;28;20438;-80
2021/05/17 02:34:07;;;;;;;8.20;4.80;;;;;;;11.76;93.25;94267.00;5063495;28;20447;-79
2021/05/17 02:36:34;;;;;;;13.33;4.73;;;;;;;11.74;93.42;94268.94;5115524;28;20450;-80
2021/05/17 02:39:01;;;;;;;4.90;4.50;;;;;;;11.78;93.82;94280.84;5115370;28;20470;-80
2021/05/17 02:41:31;;;;;;;4.77;4.27;;;;;;;11.79;92.89;94271.97;5115326;28;20509;-80
2021/05/17 02:47:19;;;;;;;3.97;3.57;;;;;;;11.86;92.85;94284.53;5115230;28;20398;-80
2021/05/17 02:49:47;;;;;;;3.90;2.67;;;;;;;11.87;92.00;94283.53;5094879;28;20496;-80
2021/05/17 02:52:14;;;;;;;9.40;3.87;;;;;;;11.88;92.79;94285.19;5095454;28;20815;-80
2021/05/17 02:54:43;;;;;;;6.43;3.60;;;;;;;11.84;92.92;94289.91;5094831;28;20432;-80
2021/05/17 02:57:13;;;;;;;6.80;3.93;;;;;;;11.81;92.25;94289.38;5095283;28;20475;-80
2021/05/17 03:00:08;;;;;;;4.13;3.30;;;;;;;11.83;92.08;94295.31;5094414;28;20454;-80
2021/05/17 03:02:46;;;;;;;5.10;4.60;;;;;;;11.77;92.33;94292.28;5052277;28;20520;-80
2021/05/17 03:05:15;;;;;;;4.80;4.47;;;;;;;11.81;91.95;94294.66;5051835;28;20918;-80
2021/05/17 03:07:46;;;;;;;9.03;4.67;;;;;;;11.83;92.61;94290.06;5052862;28;20504;-80
2021/05/17 03:10:13;;;;;;;6.20;5.37;;;;;;;11.82;92.30;94297.13;5052351;28;20446;-80
2021/05/17 03:12:42;;;;;;;5.13;4.67;;;;;;;11.80;92.50;94296.44;5051874;28;20500;-79
2021/05/17 03:15:09;;;;;;;4.97;4.57;;;;;;;11.85;92.93;94301.25;5052399;28;20426;-80
2021/05/17 03:17:38;;;;;;;5.13;3.90;;;;;;;11.88;93.77;94307.06;5019102;28;21027;-80
2021/05/17 03:20:05;;;;;;;5.90;3.53;;;;;;;11.95;93.69;94307.25;5035707;28;20430;-81
2021/05/17 03:22:33;;;;;;;3.50;3.20;;;;;;;12.02;93.58;94305.66;5019189;28;20965;-80
2021/05/17 03:25:04;;;;;;;3.93;2.70;;;;;;;12.04;92.89;94308.97;5051735;28;20439;-80
2021/05/17 03:27:30;;;;;;;4.63;2.97;;;;;;;12.07;93.61;94311.28;5051757;28;20434;-80
2021/05/17 03:29:57;;;;;;;3.53;3.17;;;;;;;12.18;93.85;94315.50;5051588;28;20449;-80
2021/05/17 03:32:24;;;;;;;3.30;3.10;;;;;;;12.30;93.33;94311.63;5051431;28;20441;-80
2021/05/17 03:34:51;;;;;;;2.80;2.60;;;;;;;12.38;92.59;94309.03;5051582;28;20433;-80
2021/05/17 03:37:18;;;;;;;3.83;2.70;;;;;;;12.40;91.78;94318.41;5051348;28;20468;-80
2021/05/17 03:39:46;;;;;;;3.03;2.77;;;;;;;12.41;91.65;94327.13;5077192;28;20530;-80
2021/05/17 03:42:13;;;;;;;3.33;2.70;;;;;;;12.42;91.58;94328.78;5093937;28;20474;-80
2021/05/17 03:44:39;;;;;;;4.03;2.80;;;;;;;12.45;91.86;94330.31;5093876;28;20447;-80
2021/05/17 03:47:05;;;;;;;5.27;2.70;;;;;;;12.47;92.31;94328.34;5093807;28;20523;-80
2021/05/17 03:49:32;;;;;;;3.00;2.77;;;;;;;12.48;91.71;94322.09;5093805;28;20443;-80
2021/05/17 03:51:58;;;;;;;2.77;2.57;;;;;;;12.53;92.11;94325.91;5093388;28;20485;-80
2021/05/17 03:54:24;;;;;;;3.00;2.80;;;;;;;12.53;91.70;94325.91;5093795;28;20892;-80
2021/05/17 03:56:53;;;;;;;2.80;2.60;;;;;;;12.52;91.19;94331.31;5093992;28;20440;-80
2021/05/17 03:59:19;;;;;;;2.93;2.73;;;;;;;12.53;91.60;94328.53;5094022;28;20837;-80
2021/05/17 04:01:46;;;;;;;4.43;3.10;;;;;;;12.52;91.19;94333.97;5093056;28;20535;-80
2021/05/17 04:04:13;;;;;;;3.20;3.00;;;;;;;12.51;91.60;94327.06;5041779;28;20488;-80
2021/05/17 04:06:46;;;;;;;2.37;2.23;;;;;;;12.53;91.43;94327.72;5058691;28;20444;-80
2021/05/17 04:14:42;;;;;;;4.13;2.80;;;;;;;12.79;92.40;94325.88;5063382;28;20435;-80
2021/05/17 04:17:08;;;;;;;3.80;3.50;;;;;;;13.37;92.54;94322.50;5093623;28;20451;-80
2021/05/17 04:19:34;;;;;;;5.63;2.87;;;;;;;14.23;88.29;94322.09;5093191;28;20445;-80
2021/05/17 04:22:01;;;;;;;3.70;2.47;;;;;;;15.04;84.15;94324.59;5093184;28;20443;-80
2021/05/17 04:24:27;;;;;;;4.33;2.73;;;;;;;15.84;80.14;94319.06;5093494;28;20434;-80
2021/05/17 04:26:54;;;;;;;3.90;2.93;;;;;;;16.53;76.50;94322.47;5057975;28;20448;-80
2021/05/17 04:29:21;;;;;;;4.53;2.53;;;;;;;17.16;74.08;94323.00;5093112;28;20433;-80
2021/05/17 04:31:47;;;;;;;3.00;2.80;;;;;;;17.72;72.35;94318.81;5093184;28;20923;-80
2021/05/17 04:34:14;;;;;;;3.00;2.57;;;;;;;18.22;69.51;94323.19;5093582;28;20439;-80
2021/05/17 04:36:40;;;;;;;4.50;2.40;;;;;;;18.79;67.76;94322.25;5093303;28;20970;-80
2021/05/17 04:39:07;;;;;;;5.50;2.90;;;;;;;19.32;65.54;94321.72;5093498;28;20472;-80
2021/05/17 04:41:33;;;;;;;3.27;3.07;;;;;;;19.71;63.84;94316.63;5093930;28;20435;-81
2021/05/17 04:43:59;;;;;;;3.00;2.80;;;;;;;20.09;62.99;94313.41;5093058;28;20866;-80
2021/05/17 04:46:26;;;;;;;3.47;2.60;;;;;;;20.46;60.76;94317.38;5092975;28;20438;-80
2021/05/17 04:48:53;;;;;;;2.50;2.30;;;;;;;20.79;60.06;94312.03;5092986;28;20916;-80
2021/05/17 04:51:21;;;;;;;3.80;2.77;;;;;;;21.13;58.96;94312.81;5092914;28;20439;-81
2021/05/17 04:53:48;;;;;;;6.80;2.70;;;;;;;21.45;58.35;94313.78;5093707;28;20486;-80
2021/05/17 04:56:14;;;;;;;6.87;3.37;;;;;;;21.64;57.72;94300.34;5094001;28;20430;-80
2021/05/17 04:58:41;;;;;;;5.17;3.27;;;;;;;20.44;60.06;94306.09;5093148;28;20854;-80
2021/05/17 05:01:07;;;;;;;3.40;3.10;;;;;;;20.49;62.03;94297.50;5092830;28;20806;-80
2021/05/17 05:03:35;;;;;;;7.13;3.40;;;;;;;19.47;63.86;94283.31;5093637;28;20484;-80
2021/05/17 05:06:01;;;;;;;4.30;3.90;;;;;;;19.00;66.42;94297.41;5093546;28;20527;-80
2021/05/17 05:08:28;;;;;;;6.10;4.80;;;;;;;19.34;66.08;94307.19;5093514;28;20439;-80
2021/05/17 05:10:55;;;;;;;5.80;4.10;;;;;;;19.66;65.15;94311.06;5092728;28;20476;-80
2021/05/17 05:13:21;;;;;;;5.00;4.60;;;;;;;19.90;63.64;94324.84;5092681;28;20446;-80
2021/05/17 05:15:51;;;;;;;5.07;4.67;;;;;;;19.96;62.86;94324.06;5096753;28;20451;-80
2021/05/17 05:18:18;;;;;;;6.70;5.17;;;;;;;19.66;64.88;94319.06;5044618;28;20484;-80
2021/05/17 05:20:45;;;;;;;5.70;5.30;;;;;;;19.59;64.09;94318.19;5097391;28;20425;-80
2021/05/17 05:23:15;;;;;;;18.47;7.20;;;;;;;19.36;65.64;94307.81;5096834;28;20458;-80
2021/05/17 05:26:10;;;;;;;11.53;6.70;;;;;;;18.78;67.69;94304.63;5096728;28;20445;-80
2021/05/17 05:28:47;;;;;;;6.67;6.00;;;;;;;18.58;68.11;94314.28;5096084;28;20439;-80
2021/05/17 05:31:18;;;;;;;6.47;5.87;;;;;;;18.48;69.54;94314.59;5096945;28;20433;-80
2021/05/17 05:33:44;;;;;;;9.13;6.43;;;;;;;18.46;70.03;94323.78;5095916;28;20486;-80
2021/05/17 05:36:12;;;;;;;12.00;7.63;;;;;;;18.80;69.73;94315.94;5096318;28;20445;-80
2021/05/17 05:38:38;;;;;;;12.80;8.27;;;;;;;18.48;70.36;94324.41;5095707;28;20894;-80
2021/05/17 05:41:04;;;;;;;7.17;6.50;;;;;;;19.05;69.71;94324.25;5096205;28;20477;-80
2021/05/17 05:43:30;;;;;;;9.90;7.10;;;;;;;19.29;68.02;94316.81;5095802;28;20431;-80
2021/05/17 05:45:57;;;;;;;8.30;6.57;;;;;;;19.67;66.76;94314.56;5095668;28;20818;-80
2021/05/17 05:48:23;;;;;;;6.37;5.87;;;;;;;20.31;66.35;94314.06;5096096;28;20470;-80
2021/05/17 05:50:50;;;;;;;6.50;5.90;;;;;;;20.77;63.78;94313.28;5096076;28;20443;-80
2021/05/17 05:53:18;;;;;;;7.60;6.90;;;;;;;21.15;62.55;94313.44;5095852;28;20481;-80
2021/05/17 05:55:45;;;;;;;7.33;6.63;;;;;;;21.17;61.78;94298.03;5095887;28;20530;-80
2021/05/17 05:58:11;;;;;;;8.57;7.43;;;;;;;20.96;62.75;94299.09;5095706;28;20489;-80
2021/05/17 06:00:38;;;;;;;7.63;6.93;;;;;;;20.87;64.53;94287.84;5043688;28;20453;-80
2021/05/17 06:03:05;;;;;;;7.50;6.80;;;;;;;20.64;65.30;94298.94;5095347;28;20459;-80
2021/05/17 06:05:32;;;;;;;8.87;7.00;;;;;;;20.66;65.42;94298.72;5060428;28;21007;-80
2021/05/17 06:07:59;;;;;;;8.93;8.03;;;;;;;20.34;65.70;94295.81;5096007;28;20813;-80
2021/05/17 06:10:27;;;;;;;8.47;7.33;;;;;;;20.09;66.40;94286.78;5095679;28;20429;-79
2021/05/17 06:12:55;;;;;;;8.63;7.83;;;;;;;19.54;68.05;94283.38;5095538;28;20439;-79
2021/05/17 06:15:22;;;;;;;8.53;7.73;;;;;;;19.61;68.82;94281.53;5095630;28;20429;-79
2021/05/17 06:17:49;;;;;;;8.90;8.10;;;;;;;19.77;68.77;94270.53;5060210;28;20481;-80
2021/05/17 06:20:17;;;;;;;10.23;9.30;;;;;;;19.58;68.51;94260.66;5095619;28;20797;-80
2021/05/17 06:22:44;;;;;;;8.97;8.07;;;;;;;19.74;69.33;94259.47;5095307;28;20454;-80
2021/05/17 06:25:12;;;;;;;11.30;8.30;;;;;;;19.96;67.82;94268.13;5060008;28;20442;-80
2021/05/17 06:27:40;;;;;;;9.90;9.10;;;;;;;20.34;67.54;94268.38;5094991;28;20825;-80
2021/05/17 06:30:09;;;;;;;9.63;8.63;;;;;;;20.67;66.63;94260.38;5095237;28;20432;-80
2021/05/17 06:32:37;;;;;;;12.10;9.00;;;;;;;20.44;nan;94274.13;5094814;28;20958;-80
2021/05/17 06:35:04;;;;;;;9.30;8.40;;;;;;;20.62;67.69;94271.66;5095145;28;20428;-79
2021/05/17 06:37:31;;;;;;;10.47;7.43;;;;;;;20.62;65.89;94284.16;5059535;28;20483;-80
2021/05/17 06:39:57;;;;;;;9.33;7.40;;;;;;;20.61;64.92;94285.19;5059729;28;20436;-79
2021/05/17 06:42:24;;;;;;;9.60;8.60;;;;;;;20.36;66.36;94280.44;5094558;28;20921;-80
2021/05/17 06:44:52;;;;;;;10.27;7.20;;;;;;;19.83;67.84;94271.56;5094317;28;20448;-79
2021/05/17 06:47:18;;;;;;;10.20;8.20;;;;;;;19.85;68.50;94258.06;5094753;28;20469;-80
2021/05/17 06:49:46;;;;;;;8.87;8.07;;;;;;;19.77;69.28;94262.56;5094672;28;20446;-79
2021/05/17 06:52:14;;;;;;;13.90;11.67;;;;;;;19.64;69.68;94241.22;5094061;28;20447;-80
2021/05/17 06:54:43;;;;;;;12.07;10.87;;;;;;;19.58;70.53;94236.69;5059407;28;20445;-79
2021/05/17 06:57:16;;;;;;;9.70;8.17;;;;;;;19.43;69.35;94238.69;5094085;28;20823;-79
2021/05/17 06:59:44;;;;;;;14.33;8.40;;;;;;;18.88;71.48;94237.84;5094027;28;20811;-79
2021/05/17 07:02:18;;;;;;;10.37;9.50;;;;;;;19.06;72.63;94238.13;5094178;28;20854;-79
2021/05/17 07:04:45;;;;;;;11.70;7.40;;;;;;;19.05;71.36;94244.47;5094191;28;20483;-79
2021/05/17 07:07:14;;;;;;;9.37;8.07;;;;;;;18.94;71.63;94239.72;5094040;28;20469;-80
2021/05/17 07:12:25;;;;;;;9.30;7.93;;;;;;;19.08;72.75;94240.59;5093898;28;20465;-80
2021/05/17 07:14:52;;;;;;;8.20;7.20;;;;;;;18.95;71.76;94244.00;5042161;28;21000;-79
2021/05/17 07:17:19;;;;;;;13.10;7.23;;;;;;;18.89;73.16;94244.81;5093876;28;20773;-79
2021/05/17 07:19:45;;;;;;;9.90;8.10;;;;;;;18.78;73.48;94242.69;5093950;28;20441;-80
2021/05/17 07:24:56;;;;;;;11.77;9.00;;;;;;;18.40;75.59;94255.50;5094089;28;20518;-80
2021/05/17 07:27:22;;;;;;;6.90;6.30;;;;;;;18.34;75.06;94248.31;5093834;28;20441;-80
2021/05/17 07:29:50;;;;;;;7.97;7.23;;;;;;;18.02;77.16;94249.69;5093614;28;20444;-80
2021/05/17 07:32:16;;;;;;;17.27;8.40;;;;;;;17.94;78.63;94253.28;5094405;28;20437;-79
2021/05/17 07:34:43;;;;;;;8.80;7.90;;;;;;;17.74;80.04;94262.88;5093544;28;20443;-79
2021/05/17 07:37:10;;;;;;;10.53;9.40;;;;;;;17.58;81.32;94253.28;5092871;28;20978;-80
2021/05/17 07:39:37;;;;;;;10.43;9.43;;;;;;;17.53;83.03;94250.38;5093879;28;20896;-80
2021/05/17 07:42:04;;;;;;;14.13;12.73;;;;;;;17.45;83.17;94239.91;5009216;28;20767;-80
2021/05/17 07:44:31;;;;;;;13.33;11.73;;;;;;;17.39;83.87;94251.28;5041992;28;20791;-80
2021/05/17 07:46:58;;;;;;;14.23;12.83;;;;;;;17.12;85.88;94245.66;5093493;28;21000;-80
2021/05/17 07:49:34;;;;;;;23.93;13.90;;;;;;;17.06;86.62;94229.66;5093649;28;20440;-80
2021/05/17 07:52:03;;;;;;;20.80;15.70;;;;;;;16.90;87.05;94217.44;5094334;28;20427;-80
2021/05/17 07:54:30;;;;;;;18.40;15.90;;;;;;;16.65;88.89;94211.59;5093988;28;20514;-80
2021/05/17 07:56:56;;;;;;;17.87;15.97;;;;;;;16.76;88.29;94210.31;5041927;28;20456;-80
2021/05/17 07:59:23;;;;;;;18.57;16.70;;;;;;;16.75;89.02;94211.31;5093989;28;20476;-80
2021/05/17 08:01:52;;;;;;;21.07;18.10;;;;;;;16.51;88.88;94213.25;5093584;28;20455;-80
2021/05/17 08:04:19;;;;;;;22.03;18.67;;;;;;;16.63;89.14;94218.91;5093935;28;20468;-80
2021/05/17 08:06:45;;;;;;;16.80;15.00;;;;;;;16.69;88.88;94221.66;5093496;28;20446;-80
2021/05/17 08:09:13;;;;;;;17.50;13.73;;;;;;;16.79;88.01;94220.56;5093867;28;20430;-80
2021/05/17 08:11:39;;;;;;;19.97;14.90;;;;;;;16.90;87.40;94222.75;5093536;28;20440;-80
2021/05/17 08:14:06;;;;;;;14.87;13.37;;;;;;;16.92;87.69;94226.84;5093588;28;20438;-80
2021/05/17 08:16:34;;;;;;;21.70;14.00;;;;;;;16.91;88.11;94229.69;5093198;28;20949;-80
2021/05/17 08:19:00;;;;;;;15.60;12.60;;;;;;;16.87;86.61;94231.06;5093170;28;20475;-80
2021/05/17 08:21:27;;;;;;;10.50;9.40;;;;;;;16.91;85.70;94224.38;5093543;28;20431;-80
2021/05/17 08:23:56;;;;;;;9.63;8.83;;;;;;;17.01;85.49;94215.13;5058254;28;20531;-80
2021/05/17 08:26:24;;;;;;;11.27;10.03;;;;;;;16.81;85.56;94210.63;5093453;28;20444;-82
2021/05/17 08:28:50;;;;;;;10.23;9.23;;;;;;;16.77;86.18;94217.25;5093224;28;20439;-81
2021/05/17 08:31:19;;;;;;;12.70;9.93;;;;;;;16.86;86.41;94217.00;5093333;28;20433;-80
2021/05/17 08:33:45;;;;;;;11.33;10.10;;;;;;;16.88;87.19;94222.94;5093127;28;20456;-80
2021/05/17 08:36:12;;;;;;;11.00;9.87;;;;;;;17.00;86.68;94225.91;5093323;28;20439;-80
2021/05/17 08:38:39;;;;;;;13.70;9.63;;;;;;;16.98;86.66;94235.88;5093274;28;20822;-80
2021/05/17 08:41:06;;;;;;;12.73;11.53;;;;;;;17.04;86.28;94235.97;5092945;28;20439;-80
2021/05/17 08:43:36;;;;;;;14.10;9.40;;;;;;;17.01;86.38;94235.50;5093367;28;20438;-80
2021/05/17 08:46:03;;;;;;;15.23;10.10;;;;;;;17.10;88.63;94245.03;5092912;28;20955;-80
2021/05/17 08:48:30;;;;;;;12.70;10.50;;;;;;;17.20;87.58;94239.41;5095046;28;20442;-80
2021/05/17 08:50:56;;;;;;;11.37;10.30;;;;;;;17.24;87.54;94232.72;5062053;28;20443;-80
2021/05/17 08:53:22;;;;;;;10.43;9.30;;;;;;;17.26;86.52;94223.56;5096794;28;20434;-81
2021/05/17 08:55:49;;;;;;;12.17;9.70;;;;;;;17.18;85.55;94221.03;5097065;28;20448;-80
2021/05/17 08:58:19;;;;;;;15.73;10.13;;;;;;;17.25;86.39;94219.28;5096938;28;20478;-80
2021/05/17 09:00:47;;;;;;;12.20;11.00;;;;;;;17.24;85.90;94222.94;5097896;28;20442;-80
2021/05/17 09:03:14;;;;;;;12.60;10.30;;;;;;;17.30;86.43;94216.88;5096651;28;20498;-80
2021/05/17 09:05:47;;;;;;;12.97;11.67;;;;;;;17.41;86.92;94222.72;5096527;28;20942;-80
2021/05/17 09:08:15;;;;;;;10.00;9.10;;;;;;;17.33;85.36;94219.16;5061816;28;20783;-80
2021/05/17 09:10:42;;;;;;;12.20;10.80;;;;;;;17.46;86.29;94233.59;5096482;28;20534;-80
2021/05/17 09:13:09;;;;;;;10.23;9.23;;;;;;;17.57;85.62;94233.09;5096571;28;20482;-80
2021/05/17 09:15:39;;;;;;;9.87;9.07;;;;;;;17.58;84.25;94221.47;5096726;28;20440;-80
2021/05/17 09:18:13;;;;;;;11.97;8.77;;;;;;;17.60;84.92;94222.91;5096384;28;20982;-80
2021/05/17 09:20:40;;;;;;;12.20;10.50;;;;;;;17.55;83.11;94214.69;5096935;28;20431;-80
2021/05/17 09:23:12;;;;;;;10.57;9.67;;;;;;;17.55;83.14;94209.41;5096368;28;20527;-80
2021/05/17 09:25:40;;;;;;;10.93;9.67;;;;;;;17.50;85.47;94193.22;5096702;28;20428;-80
2021/05/17 09:28:08;;;;;;;14.03;12.40;;;;;;;17.43;85.99;94205.63;5096331;28;20442;-80
2021/05/17 09:30:48;;;;;;;10.60;9.60;;;;;;;17.48;87.23;94211.16;5096101;28;20531;-80
2021/05/17 09:33:17;;;;;;;15.40;9.93;;;;;;;17.44;87.90;94214.38;5096828;28;20443;-80
2021/05/17 09:35:45;;;;;;;11.03;9.57;;;;;;;17.39;90.07;94204.34;5096058;28;20451;-79
2021/05/17 09:38:21;;;;;;;14.73;8.70;;;;;;;17.41;90.72;94209.47;5095940;28;20482;-80
2021/05/17 09:40:59;;;;;;;16.50;11.70;;;;;;;17.61;90.45;94202.50;5095834;28;20458;-80
2021/05/17 09:43:26;;;;;;;11.60;10.40;;;;;;;17.68;91.94;94190.19;5095938;28;20432;-80
2021/05/17 09:45:52;;;;;;;14.63;12.03;;;;;;;17.88;93.44;94211.56;5096189;28;20451;-80
2021/05/17 09:48:21;;;;;;;18.33;13.77;;;;;;;17.98;91.43;94211.25;5096158;28;20445;-80
2021/05/17 09:51:02;;;;;;;14.83;11.30;;;;;;;17.83;89.70;94204.19;5060437;28;20444;-80
2021/05/17 09:53:30;;;;;;;18.00;10.70;;;;;;;17.53;90.81;94202.63;5095714;28;20439;-80
2021/05/17 09:55:57;;;;;;;15.67;11.90;;;;;;;17.26;91.84;94197.06;5095681;28;20785;-80
2021/05/17 09:58:33;;;;;;;16.60;11.50;;;;;;;17.15;93.70;94192.25;5096052;28;20987;-80
2021/05/17 10:01:14;;;;;;;13.00;10.50;;;;;;;17.01;95.32;94182.50;5094857;28;20918;-80
2021/05/17 10:03:44;;;;;;;12.83;10.53;;;;;;;17.10;94.75;94181.41;5096172;28;20823;-80
2021/05/17 10:06:12;;;;;;;17.53;11.60;;;;;;;17.11;94.71;94182.22;5095746;28;20455;-80
2021/05/17 10:08:39;;;;;;;15.13;11.07;;;;;;;17.21;95.50;94183.56;5095795;28;20464;-80
2021/05/17 10:11:06;;;;;;;15.43;12.13;;;;;;;17.38;96.60;94180.66;5095411;28;20440;-80
2021/05/17 10:13:36;;;;;;;13.93;11.13;;;;;;;17.48;93.70;94171.38;5095433;28;20428;-80
2021/05/17 10:16:11;;;;;;;12.37;11.07;;;;;;;17.44;93.17;94167.47;5043460;28;20444;-80
2021/05/17 10:18:40;;;;;;;16.17;11.17;;;;;;;17.39;92.63;94164.56;5095196;28;20487;-80
2021/05/17 10:21:10;;;;;;;13.60;11.50;;;;;;;17.43;92.50;94172.97;5095213;28;20428;-80
2021/05/17 10:23:37;;;;;;;12.60;11.40;;;;;;;17.34;92.99;94167.75;5043632;28;20790;-80
2021/05/17 10:26:09;;;;;;;17.50;11.17;;;;;;;17.50;93.00;94168.53;5095498;28;20472;-80
2021/05/17 10:35:36;;;;;;;14.60;13.10;;;;;;;17.38;95.66;94176.19;5095170;28;20461;-80
2021/05/17 10:38:25;;;;;;;12.07;10.97;;;;;;;17.34;92.08;94172.25;5095038;28;20535;-80
2021/05/17 10:40:59;;;;;;;12.10;10.63;;;;;;;17.40;93.54;94168.03;5095609;28;20441;-80
2021/05/17 10:43:51;;;;;;;15.73;10.40;;;;;;;17.39;93.97;94169.88;5094586;28;20425;-80
2021/05/17 10:46:40;;;;;;;13.80;11.60;;;;;;;17.36;91.97;94156.16;5075882;28;21571;-80
2021/05/17 10:49:24;;;;;;;11.17;10.07;;;;;;;17.29;93.90;94151.59;5095013;28;20505;-80
2021/05/17 10:51:52;;;;;;;11.97;10.77;;;;;;;17.29;95.42;94158.75;5094469;28;20469;-80
2021/05/17 10:54:27;;;;;;;14.43;11.20;;;;;;;17.37;94.82;94160.47;5095008;28;20432;-80
2021/05/17 10:56:57;;;;;;;13.60;10.83;;;;;;;17.37;94.18;94150.69;5094654;28;20561;-80
2021/05/17 11:02:16;;;;;;;13.60;11.83;;;;;;;17.45;93.25;94147.88;5094568;28;20547;-80
2021/05/17 11:04:53;;;;;;;18.83;14.23;;;;;;;17.47;93.18;94147.69;5095010;28;20861;-80
2021/05/17 11:07:27;;;;;;;16.53;14.83;;;;;;;17.51;94.12;94157.72;5042714;28;20451;-80
2021/05/17 11:10:01;;;;;;;16.77;12.03;;;;;;;17.37;92.54;94149.84;5094601;28;20580;-80
2021/05/17 11:12:59;;;;;;;17.47;13.20;;;;;;;17.54;93.09;94152.03;5093652;28;20439;-80
2021/05/17 11:15:40;;;;;;;14.90;11.53;;;;;;;17.57;91.79;94156.16;5094483;28;20448;-80
2021/05/17 11:18:38;;;;;;;9.83;8.93;;;;;;;17.59;89.79;94164.72;5094047;28;20460;-80
2021/05/17 11:21:12;;;;;;;11.07;8.80;;;;;;;17.57;89.10;94166.75;5094281;28;20438;-80
2021/05/17 11:24:06;;;;;;;13.00;9.27;;;;;;;17.62;89.75;94167.00;5094015;28;20931;-80
2021/05/17 11:26:51;;;;;;;10.03;7.40;;;;;;;17.64;89.07;94168.47;5093898;28;20493;-80
2021/05/17 11:29:30;;;;;;;10.50;9.40;;;;;;;17.71;88.80;94163.25;5094078;28;21012;-80
2021/05/17 11:32:09;;;;;;;9.43;8.37;;;;;;;17.74;89.82;94167.34;5093675;28;20943;-80
2021/05/17 11:34:59;;;;;;;15.27;11.50;;;;;;;17.79;90.06;94168.41;5093780;28;20940;-80
2021/05/17 11:37:26;;;;;;;16.23;12.20;;;;;;;17.77;89.96;94162.47;5093940;28;20449;-79
2021/05/17 11:39:52;;;;;;;15.20;12.90;;;;;;;17.68;90.97;94161.00;5025096;28;20485;-80
2021/05/17 11:42:20;;;;;;;28.73;13.03;;;;;;;17.63;91.41;94163.34;5093861;28;20447;-83
2021/05/17 11:44:53;;;;;;;14.57;12.60;;;;;;;17.52;92.36;94167.34;5094208;28;20442;-82
2021/05/17 11:47:22;;;;;;;13.90;7.40;;;;;;;17.31;89.83;94169.97;5093643;28;20794;-79
2021/05/17 11:49:50;;;;;;;8.10;7.30;;;;;;;17.37;90.85;94176.38;5093838;28;20446;-80
2021/05/17 11:52:20;;;;;;;6.30;5.80;;;;;;;17.32;89.95;94168.97;5093705;28;20439;-83
2021/05/17 11:54:49;;;;;;;6.33;5.57;;;;;;;17.37;91.44;94160.47;5093553;28;20793;-80
2021/05/17 11:57:17;;;;;;;5.63;4.70;;;;;;;17.41;90.40;94167.84;5093377;28;20479;-83
2021/05/17 11:59:47;;;;;;;18.43;6.63;;;;;;;17.44;92.40;94170.13;5093676;28;20467;-81
2021/05/17 12:02:14;;;;;;;8.93;6.20;;;;;;;17.55;92.87;94174.09;5093909;28;20812;-79